Аэропорт: Нахичевань. Нахичевань

ICAO: UBBN

METAR:
2024-05-18 17:30:00
UBBN 181730Z 07008KT 9999 FEW046 SCT100 13/04 Q1015 NOSIG RMK QFE687
TAF:
2024-05-18 16:57:00
TAF UBBN 181657Z 1818/1918 VRB04KT 9999 FEW046 SCT100 TX20/1912Z TN08/1902Z 
  TEMPO 1818/1824 13012KT 
  TEMPO 1900/1904 04010KT 
  TEMPO 1912/1918 VRB12KT -SHRA SCT033CB BKN080